Time;durP1;ratioP1;P1;durP2;ratioP2;P2;SDS_P1;SDS_P2;PMS_P1;PMS_P2;Temp;Humidity;BMP_temperature;BMP_pressure;BME280_temperature;BME280_humidity;BME280_pressure;Samples;Min_cycle;Max_cycle;Signal;HPM_P1;HPM_P2
2021/01/28 00:00:01;;;;;;;6.35;3.35;;;16.20;57.60;;;;;;5087979;28;20388;-61
2021/01/28 00:02:26;;;;;;;7.13;3.40;;;16.20;57.50;;;;;;5088714;28;20038;-59
2021/01/28 00:04:52;;;;;;;6.40;3.53;;;16.20;57.50;;;;;;5089138;28;20032;-61
2021/01/28 00:07:17;;;;;;;6.03;3.28;;;16.20;57.50;;;;;;5089074;28;20040;-61
2021/01/28 00:09:43;;;;;;;8.27;3.50;;;16.20;57.30;;;;;;5089300;28;20073;-60
2021/01/28 00:12:09;;;;;;;9.43;3.97;;;16.20;57.20;;;;;;5088839;28;20059;-59
2021/01/28 00:14:34;;;;;;;7.22;3.50;;;16.20;57.20;;;;;;5089210;28;20094;-61
2021/01/28 00:17:00;;;;;;;9.35;3.67;;;16.20;57.20;;;;;;5090229;28;20028;-61
2021/01/28 00:19:25;;;;;;;6.57;3.30;;;16.20;57.10;;;;;;5095487;28;20642;-61
2021/01/28 00:21:51;;;;;;;8.75;4.15;;;16.20;57.10;;;;;;5102140;28;20024;-59
2021/01/28 00:24:17;;;;;;;6.97;3.45;;;16.20;57.10;;;;;;5101564;28;20032;-60
2021/01/28 00:26:42;;;;;;;6.68;3.38;;;16.20;57.10;;;;;;5094792;28;20027;-60
2021/01/28 00:29:08;;;;;;;8.13;3.90;;;16.20;57.10;;;;;;5106926;28;20404;-60
2021/01/28 00:31:33;;;;;;;6.35;3.40;;;16.10;57.10;;;;;;5096083;28;20091;-59
2021/01/28 00:33:59;;;;;;;7.88;3.35;;;16.10;57.30;;;;;;5100873;28;20023;-60
2021/01/28 00:36:25;;;;;;;6.90;3.58;;;16.10;57.20;;;;;;5103558;28;20039;-60
2021/01/28 00:38:50;;;;;;;7.30;3.63;;;16.10;57.10;;;;;;5093628;28;20024;-60
2021/01/28 00:41:16;;;;;;;6.82;4.00;;;16.10;57.10;;;;;;5106786;28;20495;-60
2021/01/28 00:43:42;;;;;;;7.22;3.30;;;16.10;57.20;;;;;;5097641;28;20028;-59
2021/01/28 00:46:07;;;;;;;6.97;3.58;;;16.10;57.20;;;;;;5099500;28;20405;-59
2021/01/28 00:48:33;;;;;;;7.65;3.50;;;16.10;57.20;;;;;;5091220;28;20028;-59
2021/01/28 00:51:01;;;;;;;6.85;3.65;;;16.00;57.20;;;;;;5068434;28;20028;-60
2021/01/28 00:53:26;;;;;;;6.38;3.60;;;16.00;57.20;;;;;;5075449;28;20028;-61
2021/01/28 00:55:52;;;;;;;6.57;3.47;;;16.00;57.70;;;;;;5079937;28;20066;-60
2021/01/28 00:58:21;;;;;;;7.50;3.72;;;16.00;57.10;;;;;;5077970;28;20024;-60
2021/01/28 01:00:47;;;;;;;7.15;3.95;;;16.00;57.30;;;;;;5070333;28;20090;-60
2021/01/28 01:03:16;;;;;;;7.18;3.42;;;16.00;57.20;;;;;;5070861;28;20063;-61
2021/01/28 01:05:43;;;;;;;8.07;3.85;;;16.00;57.00;;;;;;5085245;28;20080;-60
2021/01/28 01:08:12;;;;;;;7.95;4.10;;;16.00;57.00;;;;;;5077102;28;20028;-62
2021/01/28 01:10:44;;;;;;;8.38;3.72;;;16.00;57.00;;;;;;5089046;28;20602;-60
2021/01/28 01:13:17;;;;;;;7.57;3.38;;;16.00;56.90;;;;;;5081498;28;20024;-60
2021/01/28 01:15:43;;;;;;;6.75;3.40;;;16.10;57.00;;;;;;5092247;28;20024;-60
2021/01/28 01:18:10;;;;;;;5.85;3.30;;;15.90;57.20;;;;;;5083425;28;20035;-60
2021/01/28 01:20:36;;;;;;;7.22;3.70;;;15.90;57.20;;;;;;5074449;28;20115;-60
2021/01/28 01:23:02;;;;;;;7.03;3.30;;;16.00;57.00;;;;;;5077256;28;20102;-61
2021/01/28 01:25:28;;;;;;;6.45;3.53;;;15.90;57.00;;;;;;5101593;28;20052;-61
2021/01/28 01:27:53;;;;;;;8.68;3.17;;;15.90;57.30;;;;;;5083641;28;20032;-60
2021/01/28 01:30:20;;;;;;;6.38;3.50;;;15.90;57.10;;;;;;5073669;28;20027;-60
2021/01/28 01:32:46;;;;;;;6.55;3.72;;;16.00;57.00;;;;;;5074750;28;20033;-61
2021/01/28 01:35:13;;;;;;;6.88;3.47;;;16.00;57.10;;;;;;5071761;28;20024;-61
2021/01/28 01:37:38;;;;;;;7.65;3.65;;;15.90;57.20;;;;;;5085826;28;20024;-60
2021/01/28 01:40:06;;;;;;;6.43;3.45;;;15.90;57.10;;;;;;5098523;28;20040;-61
2021/01/28 01:42:32;;;;;;;9.80;3.90;;;15.90;57.00;;;;;;5084843;28;20028;-63
2021/01/28 01:45:06;;;;;;;7.32;3.45;;;15.90;57.10;;;;;;5091379;28;20067;-62
2021/01/28 01:47:43;;;;;;;7.22;3.70;;;15.90;57.00;;;;;;5087819;28;20393;-61
2021/01/28 01:50:43;;;;;;;8.70;3.50;;;15.90;56.90;;;;;;5080972;28;20439;-61
2021/01/28 01:53:17;;;;;;;8.25;3.65;;;15.90;57.10;;;;;;5082887;28;20027;-60
2021/01/28 01:55:46;;;;;;;8.43;3.78;;;15.80;57.10;;;;;;5083135;28;20027;-62
2021/01/28 01:58:17;;;;;;;8.63;4.35;;;15.80;57.10;;;;;;5092574;28;20020;-61
2021/01/28 02:00:42;;;;;;;7.25;3.40;;;15.90;57.30;;;;;;5091745;28;20398;-61
2021/01/28 02:03:12;;;;;;;9.60;3.90;;;15.90;57.20;;;;;;5078373;28;20036;-60
2021/01/28 02:05:40;;;;;;;7.45;3.60;;;15.90;57.10;;;;;;5072245;28;20111;-60
2021/01/28 02:08:06;;;;;;;8.73;3.90;;;15.90;57.10;;;;;;5086104;28;20040;-60
2021/01/28 02:10:32;;;;;;;8.30;4.05;;;15.80;57.30;;;;;;5081412;28;20464;-61
2021/01/28 02:12:59;;;;;;;7.72;3.88;;;15.90;57.20;;;;;;5072400;28;20016;-60
2021/01/28 02:15:26;;;;;;;8.23;3.47;;;15.90;57.10;;;;;;5084527;28;20024;-60
2021/01/28 02:17:55;;;;;;;7.15;3.22;;;15.80;57.10;;;;;;5071818;28;20020;-60
2021/01/28 02:20:55;;;;;;;8.38;3.63;;;15.90;57.10;;;;;;5071162;28;20025;-61
2021/01/28 02:23:33;;;;;;;7.90;3.58;;;15.90;56.90;;;;;;5073537;28;20489;-59
2021/01/28 02:25:59;;;;;;;7.28;3.40;;;15.80;57.10;;;;;;5078771;28;20028;-60
2021/01/28 02:29:11;;;;;;;8.32;3.40;;;15.80;57.10;;;;;;5080079;28;20412;-60
2021/01/28 02:31:38;;;;;;;8.30;3.92;;;15.80;57.00;;;;;;5087211;28;20032;-61
2021/01/28 02:34:06;;;;;;;7.07;3.50;;;15.70;57.20;;;;;;5082168;28;20027;-62
2021/01/28 02:36:44;;;;;;;10.85;3.63;;;15.70;57.00;;;;;;5088655;28;20024;-61
2021/01/28 02:39:14;;;;;;;7.95;3.42;;;15.80;57.00;;;;;;5083472;28;20395;-60
2021/01/28 02:41:42;;;;;;;6.85;3.70;;;15.70;57.10;;;;;;5073407;28;20032;-61
2021/01/28 02:44:08;;;;;;;6.85;3.35;;;15.70;57.10;;;;;;5090433;28;20038;-62
2021/01/28 02:46:35;;;;;;;14.90;3.90;;;15.80;57.00;;;;;;5089298;28;20115;-61
2021/01/28 02:49:01;;;;;;;7.35;3.80;;;15.70;57.20;;;;;;5091273;28;20108;-61
2021/01/28 02:51:26;;;;;;;7.95;3.47;;;15.70;57.10;;;;;;5075651;28;20394;-61
2021/01/28 02:53:53;;;;;;;6.93;3.60;;;15.70;57.00;;;;;;5081375;28;20389;-59
2021/01/28 02:56:23;;;;;;;7.40;3.63;;;15.60;57.20;;;;;;5102070;28;20102;-62
2021/01/28 02:58:50;;;;;;;8.15;3.80;;;15.50;57.30;;;;;;5084826;28;20132;-61
2021/01/28 03:01:16;;;;;;;6.97;3.58;;;15.60;57.20;;;;;;5072946;28;20428;-60
2021/01/28 03:03:42;;;;;;;6.90;3.40;;;15.60;57.30;;;;;;5072067;28;20029;-61
2021/01/28 03:06:09;;;;;;;6.50;3.53;;;15.50;57.50;;;;;;5071858;28;20086;-61
2021/01/28 03:08:35;;;;;;;6.60;3.55;;;15.60;57.40;;;;;;5083865;28;20795;-60
2021/01/28 03:11:02;;;;;;;6.68;3.42;;;15.60;57.20;;;;;;5089355;28;20028;-61
2021/01/28 03:13:28;;;;;;;7.32;3.80;;;15.60;57.20;;;;;;5088395;28;20023;-61
2021/01/28 03:15:54;;;;;;;7.03;3.30;;;15.60;57.20;;;;;;5089456;28;20024;-62
2021/01/28 03:18:20;;;;;;;6.90;3.53;;;15.60;57.10;;;;;;5083208;28;20021;-62
2021/01/28 03:20:46;;;;;;;7.15;3.60;;;15.50;57.20;;;;;;5084101;28;20036;-62
2021/01/28 03:23:13;;;;;;;7.03;3.60;;;15.60;57.20;;;;;;5088905;28;20055;-61
2021/01/28 03:25:39;;;;;;;7.20;3.30;;;15.60;57.20;;;;;;5071529;28;20025;-61
2021/01/28 03:28:05;;;;;;;7.10;3.53;;;15.50;57.20;;;;;;5085366;28;20126;-61
2021/01/28 03:30:34;;;;;;;7.30;3.47;;;15.60;57.30;;;;;;5069909;28;20108;-61
2021/01/28 03:33:01;;;;;;;7.50;3.40;;;15.50;57.20;;;;;;5071997;28;20028;-60
2021/01/28 03:35:27;;;;;;;7.65;3.60;;;15.60;57.00;;;;;;5069272;28;20025;-62
2021/01/28 03:37:53;;;;;;;6.68;3.30;;;15.50;57.00;;;;;;5072065;28;20032;-62
2021/01/28 03:40:20;;;;;;;7.15;3.33;;;15.60;57.10;;;;;;5070428;28;20029;-61
2021/01/28 03:42:46;;;;;;;7.03;3.30;;;15.60;56.90;;;;;;5071074;28;20035;-61
2021/01/28 03:45:13;;;;;;;7.60;3.10;;;15.60;57.00;;;;;;5074397;28;20039;-61
2021/01/28 03:47:39;;;;;;;7.05;3.33;;;15.60;57.00;;;;;;5073695;28;20075;-62
2021/01/28 03:50:07;;;;;;;6.07;3.10;;;15.60;57.00;;;;;;5078177;28;20093;-62
2021/01/28 03:52:32;;;;;;;6.68;3.10;;;15.60;56.90;;;;;;5070308;28;20021;-61
2021/01/28 03:54:58;;;;;;;7.50;3.53;;;15.60;56.90;;;;;;5076490;28;20107;-61
2021/01/28 03:57:23;;;;;;;6.03;3.15;;;15.60;56.80;;;;;;5076638;28;20112;-60
2021/01/28 03:59:49;;;;;;;6.47;3.20;;;15.60;56.80;;;;;;5069385;28;20027;-61
2021/01/28 04:02:14;;;;;;;8.18;3.47;;;15.60;56.90;;;;;;5069816;28;20111;-60
2021/01/28 04:04:40;;;;;;;8.25;3.30;;;15.60;56.90;;;;;;5072381;28;20036;-62
2021/01/28 04:07:06;;;;;;;6.15;2.80;;;15.60;56.80;;;;;;5076988;28;20043;-61
2021/01/28 04:09:31;;;;;;;6.80;3.30;;;15.70;56.70;;;;;;5090492;28;20028;-61
2021/01/28 04:11:57;;;;;;;6.13;3.10;;;15.50;56.80;;;;;;5088923;28;20393;-61
2021/01/28 04:14:22;;;;;;;6.45;3.00;;;15.60;56.90;;;;;;5080629;28;20108;-62
2021/01/28 04:16:48;;;;;;;5.35;2.95;;;15.60;56.80;;;;;;5083399;28;20024;-61
2021/01/28 04:19:14;;;;;;;7.25;3.22;;;15.60;56.70;;;;;;5089259;28;20580;-61
2021/01/28 04:21:39;;;;;;;5.65;2.95;;;15.50;56.90;;;;;;5076964;28;20094;-63
2021/01/28 04:24:05;;;;;;;5.28;2.75;;;15.50;56.90;;;;;;5090383;28;20431;-60
2021/01/28 04:26:31;;;;;;;6.13;2.85;;;15.60;56.90;;;;;;5089436;28;20054;-61
2021/01/28 04:28:56;;;;;;;6.53;2.78;;;15.60;56.70;;;;;;5088725;28;20064;-62
2021/01/28 04:31:22;;;;;;;7.25;3.47;;;15.60;56.70;;;;;;5088886;28;20020;-61
2021/01/28 04:33:48;;;;;;;6.97;2.90;;;15.60;56.60;;;;;;5080632;28;20021;-61
2021/01/28 04:36:14;;;;;;;6.35;2.97;;;15.60;56.60;;;;;;5070929;28;20028;-61
2021/01/28 04:38:39;;;;;;;5.93;2.42;;;15.60;56.60;;;;;;5073112;28;20020;-61
2021/01/28 04:41:26;;;;;;;6.22;2.47;;;15.60;56.70;;;;;;5075962;28;20031;-61
2021/01/28 04:43:53;;;;;;;4.97;2.40;;;15.60;56.70;;;;;;5077498;28;20029;-60
2021/01/28 04:46:42;;;;;;;5.95;2.80;;;15.60;56.60;;;;;;5091629;28;20020;-61
2021/01/28 04:49:12;;;;;;;6.32;2.70;;;15.60;56.50;;;;;;5088510;28;20032;-61
2021/01/28 04:51:39;;;;;;;5.93;2.60;;;15.60;56.60;;;;;;5086938;28;20028;-61
2021/01/28 04:54:24;;;;;;;5.40;2.47;;;15.60;56.60;;;;;;5079830;28;20041;-62
2021/01/28 04:56:50;;;;;;;5.22;2.70;;;15.70;56.40;;;;;;5080807;28;20042;-61
2021/01/28 04:59:48;;;;;;;5.65;2.70;;;15.70;56.30;;;;;;5072276;28;20096;-61
2021/01/28 05:02:18;;;;;;;6.57;2.85;;;15.60;56.30;;;;;;5073385;28;20467;-61
2021/01/28 05:04:47;;;;;;;4.43;2.40;;;15.60;56.30;;;;;;5080636;28;20039;-61
2021/01/28 05:07:22;;;;;;;5.10;2.40;;;15.60;56.20;;;;;;5083771;28;20032;-60
2021/01/28 05:10:34;;;;;;;4.72;2.40;;;15.60;56.20;;;;;;5090447;28;20551;-61
2021/01/28 05:13:00;;;;;;;5.30;2.50;;;15.60;56.20;;;;;;5073253;28;20032;-60
2021/01/28 05:15:38;;;;;;;41.38;31.80;;;15.60;56.10;;;;;;5081168;28;20401;-61
2021/01/28 05:18:10;;;;;;;147.80;127.10;;;15.60;56.30;;;;;;5084429;28;20028;-61
2021/01/28 05:20:36;;;;;;;57.38;49.05;;;15.60;56.60;;;;;;5080699;28;20028;-60
2021/01/28 05:23:03;;;;;;;48.03;40.53;;;15.60;56.50;;;;;;5071496;28;20170;-63
2021/01/28 05:25:39;;;;;;;24.42;20.35;;;15.60;56.20;;;;;;5080675;28;20031;-60
2021/01/28 05:28:25;;;;;;;19.92;15.40;;;15.60;56.20;;;;;;5092396;28;20103;-62
2021/01/28 05:30:51;;;;;;;16.33;13.18;;;15.60;56.20;;;;;;5083675;28;20024;-62
2021/01/28 05:33:34;;;;;;;16.67;12.68;;;15.50;56.20;;;;;;5090856;28;20378;-59
2021/01/28 05:36:02;;;;;;;13.55;10.57;;;15.50;56.30;;;;;;5089559;28;20024;-60
2021/01/28 05:38:38;;;;;;;13.32;10.07;;;15.50;56.30;;;;;;5086606;28;20024;-63
2021/01/28 05:41:05;;;;;;;13.15;9.57;;;15.50;56.50;;;;;;5087928;28;20028;-62
2021/01/28 05:43:39;;;;;;;12.25;8.68;;;15.60;56.40;;;;;;5085250;28;20037;-60
2021/01/28 05:46:12;;;;;;;189.95;137.65;;;15.40;56.70;;;;;;5070834;28;20032;-61
2021/01/28 05:48:37;;;;;;;30.02;20.58;;;15.50;56.80;;;;;;5080774;28;20119;-61
2021/01/28 05:51:15;;;;;;;45.55;38.22;;;15.50;57.30;;;;;;5073901;28;20112;-60
2021/01/28 05:53:55;;;;;;;41.00;30.85;;;15.50;57.30;;;;;;5079152;28;20024;-62
2021/01/28 05:56:21;;;;;;;145.03;122.30;;;15.60;57.30;;;;;;5084807;28;20063;-61
2021/01/28 05:59:07;;;;;;;57.65;47.42;;;15.70;57.30;;;;;;5072225;28;20036;-61
2021/01/28 06:02:00;;;;;;;54.05;39.85;;;15.80;57.10;;;;;;5083133;28;20024;-61
2021/01/28 06:04:56;;;;;;;54.85;46.72;;;15.90;57.00;;;;;;5080519;28;20020;-61
2021/01/28 06:07:28;;;;;;;59.80;50.15;;;15.80;56.90;;;;;;5073304;28;20206;-61
2021/01/28 06:10:14;;;;;;;53.00;44.58;;;15.90;57.00;;;;;;5071922;28;20056;-62
2021/01/28 06:12:59;;;;;;;45.25;37.08;;;16.00;56.90;;;;;;5085284;28;20035;-60
2021/01/28 06:15:56;;;;;;;39.80;33.65;;;16.00;56.90;;;;;;5080635;28;20028;-62
2021/01/28 06:18:41;;;;;;;35.25;28.92;;;16.10;57.50;;;;;;5070936;28;20066;-62
2021/01/28 06:21:44;;;;;;;41.80;30.20;;;16.00;56.70;;;;;;5077526;28;20086;-61
2021/01/28 06:24:36;;;;;;;36.63;25.52;;;16.10;57.30;;;;;;5089611;28;20031;-61
2021/01/28 06:27:20;;;;;;;30.80;22.63;;;16.10;57.20;;;;;;5106480;28;20118;-62
2021/01/28 06:30:13;;;;;;;32.60;22.60;;;16.20;57.10;;;;;;5068375;28;20032;-61
2021/01/28 06:33:11;;;;;;;28.80;19.42;;;16.30;57.40;;;;;;5074445;28;20043;-61
2021/01/28 06:36:08;;;;;;;28.45;17.73;;;16.40;57.00;;;;;;5073783;28;20024;-63
2021/01/28 06:38:45;;;;;;;33.72;17.98;;;16.50;57.40;;;;;;5076570;28;20394;-63
2021/01/28 06:41:19;;;;;;;115.93;63.05;;;16.60;57.80;;;;;;5073166;28;20097;-62
2021/01/28 06:44:01;;;;;;;99.00;54.42;;;16.70;57.60;;;;;;5069631;28;20040;-63
2021/01/28 06:46:48;;;;;;;55.28;34.60;;;16.70;57.60;;;;;;5062634;28;20037;-60
2021/01/28 06:49:26;;;;;;;51.65;31.02;;;16.70;57.60;;;;;;5064682;28;20032;-62
2021/01/28 06:52:11;;;;;;;50.03;31.02;;;16.60;57.70;;;;;;5064137;28;20995;-61
2021/01/28 06:55:08;;;;;;;39.33;25.77;;;16.60;57.70;;;;;;5064899;28;20056;-60
2021/01/28 06:58:00;;;;;;;39.13;25.95;;;16.50;57.80;;;;;;5063117;28;20027;-62
2021/01/28 07:00:29;;;;;;;33.05;23.23;;;16.50;57.90;;;;;;5065226;28;20056;-61
2021/01/28 07:03:14;;;;;;;37.55;23.23;;;16.50;57.90;;;;;;5064944;28;20489;-60
2021/01/28 07:06:00;;;;;;;31.33;21.45;;;16.30;57.80;;;;;;5064343;28;20047;-63
2021/01/28 07:08:45;;;;;;;30.10;21.27;;;16.50;58.00;;;;;;5063569;28;20020;-61
2021/01/28 07:11:37;;;;;;;31.63;20.08;;;16.40;58.00;;;;;;5064480;28;20056;-61
2021/01/28 07:14:04;;;;;;;27.45;18.83;;;16.40;58.10;;;;;;5062929;28;20112;-61
2021/01/28 07:16:44;;;;;;;28.33;18.05;;;16.30;58.10;;;;;;5063470;28;20111;-60
2021/01/28 07:19:18;;;;;;;29.75;18.67;;;16.30;58.20;;;;;;5065021;28;20031;-61
2021/01/28 07:21:47;;;;;;;26.88;16.38;;;16.30;58.30;;;;;;5062961;28;20021;-62
2021/01/28 07:24:26;;;;;;;23.05;15.85;;;16.20;58.20;;;;;;5066077;28;20024;-62
2021/01/28 07:26:59;;;;;;;23.65;15.68;;;16.20;58.20;;;;;;5076992;28;20040;-61
2021/01/28 07:29:30;;;;;;;23.90;15.05;;;16.20;58.30;;;;;;5081886;28;20422;-60
2021/01/28 07:31:58;;;;;;;23.63;15.10;;;16.20;58.30;;;;;;5083403;28;20049;-65
2021/01/28 07:34:23;;;;;;;23.70;13.80;;;16.20;58.30;;;;;;5079294;28;20111;-60
2021/01/28 07:36:53;;;;;;;22.00;12.98;;;16.20;58.00;;;;;;5074919;28;20429;-61
2021/01/28 07:39:30;;;;;;;19.70;12.35;;;16.10;58.10;;;;;;5083375;28;20065;-62
2021/01/28 07:42:02;;;;;;;20.73;12.82;;;16.10;58.20;;;;;;5081877;28;20499;-64
2021/01/28 07:44:30;;;;;;;21.38;12.57;;;16.10;58.20;;;;;;5082341;28;20226;-61
2021/01/28 07:46:58;;;;;;;20.80;12.82;;;16.10;58.10;;;;;;5080818;28;20400;-61
2021/01/28 07:49:28;;;;;;;19.75;12.43;;;16.10;58.10;;;;;;5081752;28;20030;-59
2021/01/28 07:52:02;;;;;;;21.45;12.48;;;16.20;58.10;;;;;;5077227;28;20400;-61
2021/01/28 07:54:28;;;;;;;18.92;11.07;;;16.20;57.90;;;;;;5078277;28;20031;-61
2021/01/28 07:57:10;;;;;;;17.80;11.02;;;16.10;57.90;;;;;;5079018;28;20024;-61
2021/01/28 07:59:52;;;;;;;14.45;10.13;;;16.20;57.90;;;;;;5077325;28;20032;-60
2021/01/28 08:02:29;;;;;;;15.00;9.55;;;16.10;57.80;;;;;;5079383;28;20443;-61
2021/01/28 08:05:03;;;;;;;15.35;9.98;;;16.10;57.80;;;;;;5079402;28;20429;-62
2021/01/28 08:07:38;;;;;;;15.23;9.68;;;16.10;57.90;;;;;;5079969;28;20047;-64
2021/01/28 08:10:29;;;;;;;17.15;9.77;;;16.10;57.80;;;;;;5080701;28;20252;-60
2021/01/28 08:13:00;;;;;;;14.45;8.43;;;16.10;58.00;;;;;;5078224;28;20373;-62
2021/01/28 08:15:31;;;;;;;13.68;8.68;;;16.00;57.90;;;;;;5084782;28;20020;-62
2021/01/28 08:18:22;;;;;;;14.20;8.73;;;16.00;58.00;;;;;;5087524;28;20358;-61
2021/01/28 08:20:48;;;;;;;11.75;7.85;;;16.00;57.90;;;;;;5085432;28;20631;-61
2021/01/28 08:23:24;;;;;;;11.52;7.80;;;16.00;57.90;;;;;;5086760;28;20028;-63
2021/01/28 08:25:57;;;;;;;12.50;7.90;;;16.10;57.90;;;;;;5084279;28;20369;-63
2021/01/28 08:28:26;;;;;;;13.70;7.38;;;16.10;57.80;;;;;;5085580;28;20024;-60
2021/01/28 08:31:08;;;;;;;10.77;6.85;;;16.10;57.80;;;;;;5081239;28;20031;-61
2021/01/28 08:33:35;;;;;;;11.93;7.40;;;16.10;57.70;;;;;;5084561;28;20028;-61
2021/01/28 08:36:02;;;;;;;13.23;7.03;;;16.10;57.70;;;;;;5083570;28;20362;-60
2021/01/28 08:38:31;;;;;;;11.80;6.78;;;16.10;57.70;;;;;;5081100;28;20028;-64
2021/01/28 08:41:14;;;;;;;11.85;6.45;;;16.00;57.70;;;;;;5083604;28;20032;-60
2021/01/28 08:43:40;;;;;;;10.90;6.43;;;16.00;57.80;;;;;;5083090;28;20146;-62
2021/01/28 08:46:10;;;;;;;13.23;6.60;;;16.00;57.80;;;;;;5086264;28;20032;-61
2021/01/28 08:48:37;;;;;;;9.80;5.78;;;15.90;57.90;;;;;;5084449;28;20028;-61
2021/01/28 08:51:10;;;;;;;10.32;6.10;;;15.90;57.80;;;;;;5084100;28;20442;-61
2021/01/28 08:53:36;;;;;;;10.20;5.43;;;15.90;57.60;;;;;;5086699;28;20161;-61
2021/01/28 08:56:15;;;;;;;12.00;6.18;;;16.00;57.80;;;;;;5084459;28;20039;-63
2021/01/28 08:58:42;;;;;;;9.13;5.50;;;15.90;57.80;;;;;;5080314;28;20024;-62
2021/01/28 09:01:10;;;;;;;8.90;5.15;;;16.00;57.80;;;;;;5089021;28;20043;-61
2021/01/28 09:04:01;;;;;;;8.68;4.72;;;15.90;57.80;;;;;;5080918;28;20071;-61
2021/01/28 09:06:27;;;;;;;9.90;5.03;;;15.90;57.90;;;;;;5081931;28;20508;-62
2021/01/28 09:09:14;;;;;;;9.90;5.45;;;15.80;57.90;;;;;;5080777;28;20040;-63
2021/01/28 09:11:39;;;;;;;10.73;4.75;;;15.80;58.10;;;;;;5087553;28;20524;-62
2021/01/28 09:14:23;;;;;;;9.10;4.50;;;15.80;58.00;;;;;;5077935;28;20036;-66
2021/01/28 09:17:21;;;;;;;9.07;4.63;;;15.80;58.10;;;;;;5084940;28;20020;-64
2021/01/28 09:19:59;;;;;;;12.23;5.03;;;15.80;58.20;;;;;;5079619;28;20066;-63
2021/01/28 09:22:35;;;;;;;8.50;4.70;;;15.80;57.90;;;;;;5075771;28;20390;-64
2021/01/28 09:25:19;;;;;;;9.85;4.80;;;15.80;58.00;;;;;;5080673;28;20024;-64
2021/01/28 09:28:04;;;;;;;8.63;4.60;;;15.80;58.50;;;;;;5084581;28;20053;-62
2021/01/28 09:30:36;;;;;;;7.82;4.13;;;15.80;58.00;;;;;;5079983;28;20420;-63
2021/01/28 09:33:31;;;;;;;7.40;3.72;;;15.80;58.00;;;;;;5070140;28;20649;-62
2021/01/28 09:36:14;;;;;;;7.45;4.07;;;15.80;57.80;;;;;;5072852;28;20081;-64
2021/01/28 09:38:41;;;;;;;7.55;3.78;;;15.80;58.00;;;;;;5093514;28;20035;-63
2021/01/28 09:41:19;;;;;;;8.32;4.60;;;15.80;58.10;;;;;;5086361;28;20111;-62
2021/01/28 09:43:45;;;;;;;8.27;3.90;;;15.90;58.20;;;;;;5084231;28;20047;-63
2021/01/28 09:46:15;;;;;;;8.32;3.85;;;15.90;57.60;;;;;;5083111;28;20083;-62
2021/01/28 09:48:41;;;;;;;7.05;3.90;;;15.80;57.70;;;;;;5081526;28;20028;-63
2021/01/28 09:51:09;;;;;;;6.95;3.60;;;15.80;57.70;;;;;;5096032;27;20033;-61
2021/01/28 09:53:35;;;;;;;7.68;4.00;;;15.80;57.70;;;;;;5082366;28;20026;-63
2021/01/28 09:56:01;;;;;;;7.13;3.38;;;15.80;57.70;;;;;;5087616;28;20036;-63
2021/01/28 09:58:27;;;;;;;7.00;4.00;;;15.80;57.80;;;;;;5089512;28;20030;-64
2021/01/28 10:00:52;;;;;;;6.97;3.72;;;15.80;57.70;;;;;;5087501;28;20042;-64
2021/01/28 10:03:19;;;;;;;7.03;3.40;;;15.80;57.80;;;;;;5085937;28;20528;-63
2021/01/28 10:05:44;;;;;;;7.32;3.58;;;15.70;57.80;;;;;;5084473;28;20085;-62
2021/01/28 10:08:11;;;;;;;6.90;3.55;;;15.80;58.30;;;;;;5085756;28;20406;-62
2021/01/28 10:10:38;;;;;;;5.95;3.00;;;15.80;57.70;;;;;;5084804;28;20114;-64
2021/01/28 10:13:12;;;;;;;8.05;3.65;;;15.80;57.60;;;;;;5077754;28;20048;-62
2021/01/28 10:15:37;;;;;;;9.35;3.22;;;15.70;58.00;;;;;;5085163;28;20078;-63
2021/01/28 10:18:03;;;;;;;7.20;3.08;;;15.70;57.90;;;;;;5071610;28;20429;-61
2021/01/28 10:20:29;;;;;;;6.55;3.20;;;15.80;57.60;;;;;;5075911;28;20036;-61
2021/01/28 10:22:58;;;;;;;7.85;2.95;;;15.90;57.40;;;;;;5082186;28;20696;-62
2021/01/28 10:25:23;;;;;;;5.95;3.10;;;15.90;57.30;;;;;;5082082;28;20078;-64
2021/01/28 10:27:50;;;;;;;7.90;3.25;;;15.90;57.20;;;;;;5094472;28;20032;-63
2021/01/28 10:30:17;;;;;;;7.05;2.80;;;15.90;57.20;;;;;;5082608;28;20059;-64
2021/01/28 10:32:46;;;;;;;6.22;3.38;;;15.80;57.40;;;;;;5084595;28;20114;-63
2021/01/28 10:35:16;;;;;;;8.35;3.50;;;15.80;57.60;;;;;;5083384;28;20032;-64
2021/01/28 10:37:41;;;;;;;6.43;3.03;;;15.80;57.60;;;;;;5080489;28;20047;-61
2021/01/28 10:40:08;;;;;;;6.38;2.95;;;15.80;57.70;;;;;;5079168;28;20032;-61
2021/01/28 10:42:39;;;;;;;7.18;2.97;;;15.80;57.40;;;;;;5083892;28;20031;-62
2021/01/28 10:45:26;;;;;;;6.15;2.78;;;15.90;57.50;;;;;;5085468;28;20024;-62
2021/01/28 10:47:52;;;;;;;5.40;2.90;;;15.80;57.60;;;;;;5080930;28;20028;-64
2021/01/28 10:50:21;;;;;;;6.13;2.95;;;15.80;57.50;;;;;;5084827;28;20098;-62
2021/01/28 10:52:48;;;;;;;6.50;2.80;;;15.80;57.40;;;;;;5077812;28;20016;-61
2021/01/28 10:55:14;;;;;;;6.68;2.85;;;15.80;57.40;;;;;;5083344;28;20139;-66
2021/01/28 10:57:39;;;;;;;5.97;2.78;;;15.70;57.40;;;;;;5082955;28;20035;-62
2021/01/28 11:00:06;;;;;;;6.32;2.80;;;15.70;57.40;;;;;;5084945;28;20031;-61
2021/01/28 11:02:31;;;;;;;5.20;2.60;;;15.70;57.40;;;;;;5078650;28;20032;-63
2021/01/28 11:04:57;;;;;;;5.35;2.72;;;15.80;57.20;;;;;;5084378;28;20043;-62
2021/01/28 11:07:22;;;;;;;5.70;2.95;;;15.70;57.30;;;;;;5082456;28;20020;-62
2021/01/28 11:09:48;;;;;;;7.00;2.55;;;15.80;57.30;;;;;;5078395;28;20031;-62
2021/01/28 11:12:14;;;;;;;4.95;2.47;;;15.70;57.40;;;;;;5079031;28;20047;-61
2021/01/28 11:14:39;;;;;;;6.20;2.40;;;15.70;57.60;;;;;;5083418;28;20047;-63
2021/01/28 11:17:05;;;;;;;9.20;2.70;;;15.70;57.40;;;;;;5065671;28;20115;-63
2021/01/28 11:19:30;;;;;;;112.55;101.00;;;15.60;58.00;;;;;;5078314;28;20036;-62
2021/01/28 11:21:56;;;;;;;79.93;72.22;;;15.70;58.00;;;;;;5075567;28;20265;-63
2021/01/28 11:24:21;;;;;;;45.97;41.58;;;15.80;57.40;;;;;;5063368;28;20546;-63
2021/01/28 11:26:47;;;;;;;42.00;37.70;;;15.80;57.10;;;;;;5064685;28;20493;-61
2021/01/28 11:29:12;;;;;;;50.90;45.83;;;15.80;57.10;;;;;;5079380;28;20020;-62
2021/01/28 11:31:38;;;;;;;50.28;45.22;;;15.80;57.10;;;;;;5082580;28;20035;-62
2021/01/28 11:34:05;;;;;;;48.65;43.83;;;15.80;57.10;;;;;;5083819;28;20051;-63
2021/01/28 11:36:31;;;;;;;46.22;41.33;;;15.80;57.00;;;;;;5081302;28;20031;-62
2021/01/28 11:38:57;;;;;;;41.10;36.70;;;15.90;57.00;;;;;;5067523;28;20481;-62
2021/01/28 11:41:22;;;;;;;39.22;35.03;;;15.80;57.00;;;;;;5089245;28;20085;-62
2021/01/28 11:43:48;;;;;;;38.75;34.88;;;15.80;56.90;;;;;;5081959;28;20455;-62
2021/01/28 11:46:13;;;;;;;35.33;31.58;;;15.80;57.10;;;;;;5085464;28;20085;-61
2021/01/28 11:48:39;;;;;;;33.35;29.75;;;15.80;57.10;;;;;;5103662;28;20570;-64
2021/01/28 11:51:04;;;;;;;33.22;29.83;;;15.80;57.20;;;;;;5083693;28;20043;-61
2021/01/28 11:53:30;;;;;;;32.10;27.88;;;15.80;57.30;;;;;;5103592;28;20798;-62
2021/01/28 11:55:55;;;;;;;31.42;28.23;;;15.80;57.10;;;;;;5087724;28;20069;-62
2021/01/28 11:58:22;;;;;;;30.05;26.90;;;15.70;57.30;;;;;;5086204;28;20024;-61
2021/01/28 12:00:47;;;;;;;29.67;26.60;;;15.70;57.30;;;;;;5086238;28;20035;-62
2021/01/28 12:03:13;;;;;;;28.23;25.02;;;15.70;57.50;;;;;;5103447;28;20027;-62
2021/01/28 12:05:39;;;;;;;28.27;24.20;;;15.80;57.50;;;;;;5099077;28;20065;-63
2021/01/28 12:08:04;;;;;;;26.50;23.70;;;15.80;57.50;;;;;;5082118;28;20421;-62
2021/01/28 12:10:31;;;;;;;25.08;22.63;;;15.70;57.50;;;;;;5063469;28;20473;-61
2021/01/28 12:12:57;;;;;;;24.45;22.05;;;15.70;57.50;;;;;;5077227;28;20408;-63
2021/01/28 12:15:23;;;;;;;26.08;23.38;;;15.70;57.60;;;;;;5081464;28;20028;-63
2021/01/28 12:17:49;;;;;;;24.90;22.30;;;15.70;57.60;;;;;;5076219;28;20027;-63
2021/01/28 12:20:17;;;;;;;23.02;20.75;;;15.70;58.30;;;;;;5083869;28;20040;-63
2021/01/28 12:22:43;;;;;;;23.33;20.83;;;15.70;57.80;;;;;;5082565;28;20493;-62
2021/01/28 12:25:08;;;;;;;21.60;19.45;;;15.80;57.90;;;;;;5084028;28;20036;-63
2021/01/28 12:27:34;;;;;;;24.05;18.55;;;15.90;57.70;;;;;;5082658;28;20475;-60
2021/01/28 12:30:02;;;;;;;20.23;18.20;;;15.90;57.60;;;;;;5079798;28;20035;-60
2021/01/28 12:32:29;;;;;;;20.80;18.42;;;16.00;57.60;;;;;;5074526;28;20533;-62
2021/01/28 12:34:55;;;;;;;20.05;17.27;;;16.00;57.70;;;;;;5063918;28;20347;-62
2021/01/28 12:37:20;;;;;;;19.25;16.85;;;16.10;57.50;;;;;;5090930;28;20119;-61
2021/01/28 12:39:46;;;;;;;17.33;15.52;;;16.10;57.60;;;;;;5104896;28;20512;-62
2021/01/28 12:42:12;;;;;;;16.42;14.73;;;16.20;57.40;;;;;;5103832;28;20433;-62
2021/01/28 12:44:37;;;;;;;16.13;14.43;;;16.30;57.30;;;;;;5084679;28;20051;-61
2021/01/28 12:47:03;;;;;;;17.63;13.98;;;16.30;56.90;;;;;;5084152;28;20028;-65
2021/01/28 12:49:30;;;;;;;14.90;13.35;;;16.40;56.80;;;;;;5082749;28;20555;-61
2021/01/28 12:51:56;;;;;;;15.18;13.20;;;16.40;56.80;;;;;;5083698;28;20170;-63
2021/01/28 12:54:22;;;;;;;15.68;12.05;;;16.50;56.60;;;;;;5081978;28;20024;-62
2021/01/28 12:56:48;;;;;;;17.00;12.30;;;16.50;56.60;;;;;;5080002;28;20024;-62